Main page
METAR-TAF:

METAR-TAF

Airports :

Huron Regional Airport

Huron, South Dakota, United States

latitude: 44-23-17N, longitude: 098-13-42W, elevation: 1286 ft

Current weather observation

The report was made 34 minutes ago, at 13:55 UTC
Wind 7 mph from the South/Southeast
Temperature 25°F
Humidity 86%
Pressure 29.90 in. Hg
Visibility: 10 miles
Clear sky

METAR: KHON 221355Z AUTO 16006KT 10SM CLR M04/M06 A2990 RMK AO2 SLP143 T10391061

Time: 08:29 (14:29 UTC)

Forecast

The report was made 3 hours and 9 minutes ago, at 11:20 UTC
Forecast valid from 22 at 12 UTC to 23 at 12 UTC
Wind 8 mph from the South/Southeast
Visibility: 6 miles
Scattered clouds at a height of 25000 ft
From 22 at 1800 UTC
Wind 7 mph from the West
Visibility: 6 miles
Clear sky
From 23 at 1000 UTC
Wind 8 mph from the West
Visibility: 6 miles
Few clouds at a height of 25000 ft

TAF: KHON 221120Z 2212/2312 16007KT P6SM SCT250 FM221800 26006KT P6SM SKC FM231000 26007KT P6SM FEW250

Weather observations and forecasts of more than 4000 airports (METAR and TAF reports).

The available stations are represented by yellow and red dots on the map.

Hover mouse over dot to see the name of the station.

Then click to see weather observations and forecasts.

To change the map : click on the green buttons with a black cross to zoom in, on the green button with a dash to zoom out, or on the green arrows for adjacent maps.


METAR-TAF: